createdAt,value
2018-06-28T00:03:56.190Z,10.1
2018-06-28T00:04:05.168Z,10.1
2018-06-28T00:05:05.137Z,9.6
2018-06-28T00:06:05.178Z,9.6
2018-06-28T00:07:05.184Z,9.4
2018-06-28T00:08:05.230Z,9.4
2018-06-28T00:09:05.189Z,9.3
2018-06-28T00:10:05.228Z,9.3
2018-06-28T00:11:05.225Z,9.3
2018-06-28T00:12:05.235Z,9.4
2018-06-28T00:14:18.009Z,9.4
2018-06-28T00:15:17.930Z,9.4
2018-06-28T00:16:18.034Z,9.4
2018-06-28T00:17:17.989Z,9.4
2018-06-28T00:18:18.635Z,9.4
2018-06-28T00:19:17.838Z,9.3
2018-06-28T00:20:17.924Z,9.3
2018-06-28T00:21:17.990Z,9.3
2018-06-28T00:22:17.917Z,9.2
2018-06-28T00:23:17.928Z,9.2
2018-06-28T00:24:18.677Z,9.2
2018-06-28T00:25:17.940Z,9.2
2018-06-28T00:26:18.134Z,9.2
2018-06-28T00:27:18.071Z,9.2
2018-06-28T00:28:18.975Z,9.2
2018-06-28T00:29:17.967Z,9.2
2018-06-28T00:30:17.998Z,9.2
2018-06-28T00:31:17.925Z,9.2
2018-06-28T00:32:17.934Z,9.2
2018-06-28T00:33:18.063Z,9.2
2018-06-28T00:34:17.969Z,9.2
2018-06-28T00:35:18.004Z,9.0
2018-06-28T00:36:19.362Z,9.0
2018-06-28T00:37:17.949Z,8.9
2018-06-28T00:38:18.005Z,8.9
2018-06-28T00:39:18.051Z,8.9
2018-06-28T00:40:18.017Z,8.9
2018-06-28T00:41:17.962Z,8.9
2018-06-28T00:42:18.032Z,8.9
2018-06-28T00:43:17.909Z,8.9
2018-06-28T00:44:17.970Z,8.9
2018-06-28T00:45:18.033Z,8.8
2018-06-28T00:46:18.007Z,8.8
2018-06-28T00:47:17.969Z,8.8
2018-06-28T00:48:17.975Z,8.8
2018-06-28T00:49:17.957Z,8.8
2018-06-28T00:50:18.082Z,8.8
2018-06-28T00:51:18.053Z,8.8
2018-06-28T00:52:17.994Z,8.8
2018-06-28T00:53:17.983Z,8.8
2018-06-28T00:54:18.045Z,8.8
2018-06-28T00:55:17.959Z,8.7
2018-06-28T00:56:18.004Z,8.7
2018-06-28T00:57:17.954Z,8.6
2018-06-28T00:58:18.008Z,8.6
2018-06-28T00:59:18.102Z,8.6
2018-06-28T01:00:17.992Z,8.5
2018-06-28T01:01:18.021Z,8.5
2018-06-28T01:02:17.979Z,8.6
2018-06-28T01:03:18.078Z,8.6
2018-06-28T01:04:18.161Z,8.6
2018-06-28T01:05:18.145Z,8.5
2018-06-28T01:06:18.030Z,8.5
2018-06-28T01:07:18.111Z,8.5
2018-06-28T01:08:17.980Z,8.5
2018-06-28T01:09:17.978Z,8.5
2018-06-28T01:10:17.960Z,8.5
2018-06-28T01:11:18.004Z,8.5
2018-06-28T01:12:18.016Z,8.5
2018-06-28T01:13:18.080Z,8.5
2018-06-28T01:14:18.043Z,8.5
2018-06-28T01:15:18.027Z,8.4
2018-06-28T01:16:18.053Z,8.4
2018-06-28T01:17:18.057Z,8.4
2018-06-28T01:18:17.986Z,8.4
2018-06-28T01:19:18.061Z,8.4
2018-06-28T01:20:18.036Z,8.4
2018-06-28T01:21:20.278Z,8.4
2018-06-28T01:22:18.043Z,8.4
2018-06-28T01:23:17.989Z,8.4
2018-06-28T01:24:18.057Z,8.4
2018-06-28T01:25:18.195Z,8.4
2018-06-28T01:26:18.127Z,8.4
2018-06-28T01:27:18.181Z,8.4
2018-06-28T01:28:18.054Z,8.4
2018-06-28T01:29:18.020Z,8.4
2018-06-28T01:30:18.115Z,8.4
2018-06-28T01:31:28.706Z,8.4
2018-06-28T01:32:18.107Z,8.4
2018-06-28T01:33:18.097Z,8.4
2018-06-28T01:34:18.027Z,8.4
2018-06-28T01:35:18.042Z,8.4
2018-06-28T01:36:18.077Z,8.3
2018-06-28T01:37:18.013Z,8.3
2018-06-28T01:38:18.037Z,8.2
2018-06-28T01:39:18.012Z,8.2
2018-06-28T01:40:18.098Z,8.2
2018-06-28T01:41:18.044Z,8.1
2018-06-28T01:42:18.124Z,8.1
2018-06-28T01:43:18.048Z,8.1
2018-06-28T01:44:18.038Z,8.1
2018-06-28T01:45:18.094Z,8.1
2018-06-28T01:46:18.752Z,8.1
2018-06-28T01:47:18.049Z,8.1
2018-06-28T01:48:18.029Z,8.1
2018-06-28T01:49:18.546Z,8.1
2018-06-28T01:50:18.081Z,8.1
2018-06-28T01:51:18.029Z,8.2
2018-06-28T01:52:18.139Z,8.2
2018-06-28T01:53:18.053Z,8.2
2018-06-28T01:54:18.070Z,8.2
2018-06-28T01:55:18.192Z,8.2
2018-06-28T01:56:18.172Z,8.2
2018-06-28T01:57:18.112Z,8.2
2018-06-28T01:58:18.100Z,8.1
2018-06-28T01:59:20.092Z,8.1
2018-06-28T02:00:18.051Z,8.1
2018-06-28T02:01:18.082Z,8.0
2018-06-28T02:02:18.063Z,8.0
2018-06-28T02:03:18.079Z,7.9
2018-06-28T02:04:18.088Z,7.9
2018-06-28T02:05:18.144Z,7.9
2018-06-28T02:06:18.094Z,7.9
2018-06-28T02:07:18.104Z,7.9
2018-06-28T02:08:18.104Z,7.9
2018-06-28T02:10:07.931Z,7.8
2018-06-28T02:10:18.124Z,7.8
2018-06-28T02:11:18.305Z,7.8
2018-06-28T02:12:18.121Z,7.8
2018-06-28T02:13:18.085Z,7.8
2018-06-28T02:14:18.084Z,7.8
2018-06-28T02:15:18.132Z,7.8
2018-06-28T02:16:17.994Z,7.6
2018-06-28T02:17:18.109Z,7.6
2018-06-28T02:18:18.131Z,7.6
2018-06-28T02:19:18.119Z,7.6
2018-06-28T02:20:18.178Z,7.6
2018-06-28T02:21:18.135Z,7.6
2018-06-28T02:22:18.094Z,7.6
2018-06-28T02:23:18.234Z,7.6
2018-06-28T02:24:18.145Z,7.7
2018-06-28T02:25:18.689Z,7.7
2018-06-28T02:26:18.095Z,7.7
2018-06-28T02:27:18.270Z,7.7
2018-06-28T02:28:18.145Z,7.7
2018-06-28T02:29:18.875Z,7.6
2018-06-28T02:30:18.109Z,7.6
2018-06-28T02:31:18.183Z,7.6
2018-06-28T02:32:18.178Z,7.6
2018-06-28T02:33:18.137Z,7.6
2018-06-28T02:34:18.107Z,7.6
2018-06-28T02:35:18.235Z,7.6
2018-06-28T02:36:18.125Z,7.6
2018-06-28T02:37:18.178Z,7.2
2018-06-28T02:38:18.200Z,7.2
2018-06-28T02:39:18.194Z,7.3
2018-06-28T02:40:18.198Z,7.3
2018-06-28T02:41:18.076Z,7.3
2018-06-28T02:42:18.161Z,7.2
2018-06-28T02:43:18.109Z,7.2
2018-06-28T02:44:19.170Z,7.1
2018-06-28T02:45:18.186Z,7.1
2018-06-28T02:46:18.203Z,7.1
2018-06-28T02:47:28.435Z,7.1
2018-06-28T02:48:18.217Z,7.1
2018-06-28T02:49:18.185Z,7.1
2018-06-28T02:50:18.333Z,7.1
2018-06-28T02:51:18.223Z,7.1
2018-06-28T02:52:18.175Z,7.2
2018-06-28T02:53:18.147Z,7.2
2018-06-28T02:54:18.155Z,7.2
2018-06-28T02:55:18.196Z,7.2
2018-06-28T02:56:18.251Z,7.2
2018-06-28T02:57:18.809Z,7.2
2018-06-28T02:58:18.199Z,7.2
2018-06-28T02:59:18.215Z,7.2
2018-06-28T03:00:18.269Z,7.2
2018-06-28T03:01:18.190Z,7.2
2018-06-28T03:02:18.194Z,7.2
2018-06-28T03:03:18.240Z,7.2
2018-06-28T03:04:18.243Z,7.2
2018-06-28T03:05:18.208Z,7.2
2018-06-28T03:06:18.168Z,7.2
2018-06-28T03:08:18.289Z,7.2
2018-06-28T03:09:18.313Z,7.2
2018-06-28T03:10:18.717Z,7.2
2018-06-28T03:11:18.146Z,7.2
2018-06-28T03:12:18.211Z,7.3
2018-06-28T03:13:18.215Z,7.3
2018-06-28T03:14:18.356Z,7.3
2018-06-28T03:15:18.252Z,7.3
2018-06-28T03:16:18.243Z,7.3
2018-06-28T03:17:18.193Z,7.6
2018-06-28T03:18:18.283Z,7.6
2018-06-28T03:19:18.232Z,7.6
2018-06-28T03:20:18.249Z,7.8
2018-06-28T03:21:18.354Z,7.8
2018-06-28T03:22:18.303Z,7.9
2018-06-28T03:23:18.258Z,7.9
2018-06-28T03:24:18.370Z,7.9
2018-06-28T03:25:18.214Z,7.9
2018-06-28T03:37:19.544Z,8.1
2018-06-28T03:38:19.418Z,8.1
2018-06-28T03:39:19.547Z,8.1
2018-06-28T03:40:19.623Z,8.1
2018-06-28T03:41:19.554Z,8.1
2018-06-28T03:42:19.445Z,8.1
2018-06-28T03:43:19.585Z,8.1
2018-06-28T03:44:19.512Z,8.1
2018-06-28T03:45:19.536Z,8.2
2018-06-28T03:46:19.550Z,8.2
2018-06-28T03:52:14.343Z,8.2
2018-06-28T03:52:27.500Z,8.2
2018-06-28T03:53:28.535Z,8.4
2018-06-28T03:54:28.451Z,8.4
2018-06-28T03:55:28.410Z,8.4
2018-06-28T03:56:28.475Z,8.4
2018-06-28T03:57:28.561Z,8.4
2018-06-28T03:58:28.360Z,8.5
2018-06-28T04:00:28.599Z,8.8
2018-06-28T04:01:28.455Z,8.8
2018-06-28T04:02:28.466Z,8.8
2018-06-28T04:03:28.586Z,8.8
2018-06-28T04:04:28.413Z,8.8
2018-06-28T04:05:28.504Z,8.9
2018-06-28T04:06:28.442Z,8.9
2018-06-28T04:07:28.457Z,8.9
2018-06-28T04:08:28.548Z,9.0
2018-06-28T04:09:28.286Z,9.0
2018-06-28T04:10:28.442Z,9.0
2018-06-28T04:11:28.385Z,9.0
2018-06-28T04:12:28.421Z,9.0
2018-06-28T04:13:28.449Z,9.1
2018-06-28T04:14:28.372Z,9.1
2018-06-28T04:15:28.557Z,9.2
2018-06-28T04:16:28.418Z,9.2
2018-06-28T04:17:28.401Z,9.2
2018-06-28T04:18:28.446Z,9.4
2018-06-28T04:19:28.428Z,9.4
2018-06-28T04:20:28.432Z,9.4
2018-06-28T04:21:28.496Z,9.5
2018-06-28T04:22:28.427Z,9.5
2018-06-28T04:23:29.181Z,9.6
2018-06-28T04:24:28.357Z,9.6
2018-06-28T04:25:29.164Z,9.6
2018-06-28T04:26:28.405Z,9.6
2018-06-28T04:27:28.558Z,9.6
2018-06-28T04:28:28.341Z,9.8
2018-06-28T04:29:28.410Z,9.8
2018-06-28T04:30:28.488Z,9.8
2018-06-28T04:31:28.485Z,9.8
2018-06-28T04:32:28.547Z,9.8
2018-06-28T04:33:28.539Z,10.0
2018-06-28T04:34:45.289Z,10.0
2018-06-28T04:35:28.615Z,10.0
2018-06-28T04:36:30.532Z,10.0
2018-06-28T04:37:28.552Z,10.0
2018-06-28T04:38:28.423Z,10.6
2018-06-28T04:39:28.426Z,10.6
2018-06-28T04:40:28.525Z,10.6
2018-06-28T04:41:28.625Z,11.0
2018-06-28T04:42:28.539Z,11.0
2018-06-28T04:43:28.464Z,11.4
2018-06-28T04:44:28.412Z,11.4
2018-06-28T04:45:28.527Z,11.4
2018-06-28T04:46:28.527Z,11.8
2018-06-28T04:47:28.525Z,11.8
2018-06-28T04:48:28.449Z,11.8
2018-06-28T04:49:28.512Z,12.1
2018-06-28T04:50:28.554Z,12.1
2018-06-28T04:51:28.452Z,12.4
2018-06-28T04:52:28.426Z,12.4
2018-06-28T04:53:28.560Z,12.4
2018-06-28T04:54:30.562Z,12.8
2018-06-28T04:55:29.217Z,12.8
2018-06-28T04:56:28.577Z,13.1
2018-06-28T04:57:28.451Z,13.1
2018-06-28T04:58:28.573Z,13.1
2018-06-28T04:59:28.532Z,13.2
2018-06-28T05:00:30.168Z,13.2
2018-06-28T05:01:28.497Z,13.4
2018-06-28T05:02:28.571Z,13.4
2018-06-28T05:03:28.413Z,13.4
2018-06-28T05:04:30.626Z,13.6
2018-06-28T05:05:28.563Z,13.6
2018-06-28T05:06:31.882Z,13.9
2018-06-28T05:07:28.535Z,13.9
2018-06-28T05:08:28.644Z,13.9
2018-06-28T05:09:28.558Z,14.3
2018-06-28T05:10:28.480Z,14.3
2018-06-28T05:11:28.513Z,14.9
2018-06-28T05:12:28.510Z,14.9
2018-06-28T05:13:28.483Z,14.9
2018-06-28T05:14:30.652Z,15.3
2018-06-28T05:15:28.542Z,15.3
2018-06-28T05:16:28.604Z,15.3
2018-06-28T05:17:28.579Z,15.3
2018-06-28T05:18:29.269Z,15.3
2018-06-28T05:19:29.277Z,16.1
2018-06-28T05:20:28.512Z,16.1
2018-06-28T05:21:28.730Z,16.1
2018-06-28T05:22:28.592Z,16.7
2018-06-28T05:23:28.773Z,16.7
2018-06-28T05:25:28.581Z,17.0
2018-06-28T05:26:28.632Z,17.0
2018-06-28T05:27:28.690Z,17.2
2018-06-28T05:28:28.623Z,17.2
2018-06-28T05:29:28.667Z,17.6
2018-06-28T05:30:28.597Z,17.6
2018-06-28T05:31:29.357Z,17.6
2018-06-28T05:32:28.603Z,18.0
2018-06-28T05:33:28.573Z,18.0
2018-06-28T05:34:28.567Z,17.8
2018-06-28T05:35:29.221Z,17.8
2018-06-28T05:36:28.565Z,17.8
2018-06-28T05:37:28.601Z,17.5
2018-06-28T05:38:29.391Z,17.5
2018-06-28T05:39:28.611Z,16.7
2018-06-28T05:40:28.569Z,16.7
2018-06-28T05:41:28.647Z,16.7
2018-06-28T05:42:28.686Z,16.6
2018-06-28T05:43:29.718Z,16.6
2018-06-28T05:44:28.650Z,16.7
2018-06-28T05:45:29.249Z,16.7
2018-06-28T05:46:29.265Z,16.7
2018-06-28T05:47:28.642Z,16.8
2018-06-28T05:48:28.710Z,16.8
2018-06-28T05:49:28.577Z,16.8
2018-06-28T05:50:29.200Z,17.0
2018-06-28T05:51:28.656Z,17.0
2018-06-28T05:52:28.699Z,17.3
2018-06-28T05:53:28.760Z,17.3
2018-06-28T05:54:29.388Z,17.3
2018-06-28T05:55:28.652Z,17.2
2018-06-28T05:56:28.648Z,17.2
2018-06-28T05:57:29.463Z,17.2
2018-06-28T05:58:28.647Z,17.2
2018-06-28T05:59:28.673Z,17.2
2018-06-28T06:00:28.677Z,16.8
2018-06-28T06:01:29.514Z,16.8
2018-06-28T06:02:28.688Z,16.8
2018-06-28T06:03:28.640Z,16.8
2018-06-28T06:04:28.672Z,16.8
2018-06-28T06:05:28.698Z,16.9
2018-06-28T06:06:29.312Z,16.9
2018-06-28T06:10:46.779Z,17.2
2018-06-28T06:10:55.793Z,17.2
2018-06-28T06:11:54.802Z,17.6
2018-06-28T06:12:54.848Z,17.6
2018-06-28T06:13:54.866Z,17.6
2018-06-28T06:14:54.850Z,17.3
2018-06-28T06:15:54.876Z,17.3
2018-06-28T06:16:54.837Z,17.3
2018-06-28T06:17:55.467Z,17.5
2018-06-28T06:18:54.837Z,17.5
2018-06-28T06:19:54.790Z,17.5
2018-06-28T06:20:54.870Z,17.2
2018-06-28T06:21:55.347Z,17.2
2018-06-28T06:22:54.796Z,17.1
2018-06-28T06:23:54.877Z,17.1
2018-06-28T06:24:54.858Z,17.1
2018-06-28T06:25:54.814Z,17.0
2018-06-28T06:26:54.870Z,17.0
2018-06-28T06:27:54.789Z,17.0
2018-06-28T06:28:55.604Z,17.0
2018-06-28T06:29:54.907Z,17.0
2018-06-28T06:30:54.887Z,16.9
2018-06-28T06:31:54.822Z,16.9
2018-06-28T06:32:54.888Z,16.8
2018-06-28T06:33:54.782Z,16.8
2018-06-28T06:34:54.845Z,16.8
2018-06-28T06:35:54.798Z,16.8
2018-06-28T06:36:55.455Z,16.8
2018-06-28T06:37:54.828Z,16.8
2018-06-28T06:38:54.927Z,16.8
2018-06-28T06:39:54.832Z,16.8
2018-06-28T06:40:54.833Z,16.9
2018-06-28T06:41:54.770Z,16.9
2018-06-28T06:42:54.897Z,17.0
2018-06-28T06:43:55.388Z,17.0
2018-06-28T06:44:54.853Z,17.0
2018-06-28T06:45:54.777Z,17.5
2018-06-28T06:46:54.917Z,17.5
2018-06-28T06:47:54.873Z,17.5
2018-06-28T06:48:56.966Z,18.0
2018-06-28T06:49:55.496Z,18.0
2018-06-28T06:50:55.874Z,18.1
2018-06-28T06:51:54.938Z,18.1
2018-06-28T06:52:54.938Z,18.1
2018-06-28T06:53:54.901Z,18.2
2018-06-28T06:54:55.277Z,18.2
2018-06-28T06:55:54.940Z,18.3
2018-06-28T06:56:55.633Z,18.3
2018-06-28T06:57:54.838Z,18.3
2018-06-28T06:58:54.875Z,18.4
2018-06-28T06:59:55.484Z,18.4
2018-06-28T07:00:54.984Z,18.3
2018-06-28T07:01:54.906Z,18.3
2018-06-28T07:02:54.882Z,18.3
2018-06-28T07:03:54.962Z,18.2
2018-06-28T07:04:54.829Z,18.2
2018-06-28T07:05:56.129Z,18.3
2018-06-28T07:06:55.537Z,18.3
2018-06-28T07:07:54.843Z,18.3
2018-06-28T07:08:56.071Z,18.3
2018-06-28T07:09:55.457Z,18.3
2018-06-28T07:10:54.864Z,18.8
2018-06-28T07:11:54.837Z,18.8
2018-06-28T07:12:54.947Z,18.8
2018-06-28T07:13:54.909Z,18.8
2018-06-28T07:14:54.895Z,18.8
2018-06-28T07:15:55.104Z,18.8
2018-06-28T07:16:55.661Z,18.8
2018-06-28T07:17:54.976Z,18.8
2018-06-28T07:18:54.989Z,18.8
2018-06-28T07:19:54.902Z,18.8
2018-06-28T07:20:54.904Z,18.8
2018-06-28T07:21:54.946Z,19.2
2018-06-28T07:23:54.914Z,19.1
2018-06-28T07:24:54.949Z,19.1
2018-06-28T07:25:54.897Z,19.1
2018-06-28T07:30:13.479Z,19.3
2018-06-28T07:30:22.550Z,19.3
2018-06-28T07:31:22.553Z,18.7
2018-06-28T07:32:22.587Z,18.7
2018-06-28T07:33:23.389Z,18.7
2018-06-28T07:34:22.625Z,18.6
2018-06-28T07:35:23.203Z,18.6
2018-06-28T07:36:22.529Z,18.8
2018-06-28T07:37:22.683Z,18.8
2018-06-28T07:38:22.708Z,18.8
2018-06-28T07:40:35.720Z,18.9
2018-06-28T07:41:35.175Z,19.1
2018-06-28T07:42:35.898Z,19.1
2018-06-28T07:43:35.178Z,19.1
2018-06-28T07:44:35.132Z,19.3
2018-06-28T07:45:35.252Z,19.3
2018-06-28T07:46:35.118Z,19.6
2018-06-28T07:47:35.185Z,19.6
2018-06-28T07:48:35.079Z,19.6
2018-06-28T07:49:35.255Z,19.7
2018-06-28T07:50:35.200Z,19.7
2018-06-28T07:51:35.091Z,19.8
2018-06-28T07:52:35.084Z,19.8
2018-06-28T07:53:35.135Z,19.8
2018-06-28T07:54:35.809Z,19.6
2018-06-28T07:55:35.094Z,19.6
2018-06-28T07:56:35.193Z,19.7
2018-06-28T07:57:35.168Z,19.7
2018-06-28T07:58:35.187Z,19.7
2018-06-28T07:59:35.849Z,19.7
2018-06-28T08:00:35.237Z,19.7
2018-06-28T08:01:35.186Z,19.7
2018-06-28T08:02:35.328Z,20.1
2018-06-28T08:03:36.854Z,20.1
2018-06-28T08:04:35.173Z,20.6
2018-06-28T08:05:35.794Z,20.6
2018-06-28T08:06:35.161Z,20.6
2018-06-28T08:07:35.903Z,20.9
2018-06-28T08:08:35.255Z,20.9
2018-06-28T08:11:16.464Z,21.1
2018-06-28T08:12:25.498Z,21.2
2018-06-28T08:13:25.430Z,21.2
2018-06-28T08:14:25.456Z,21.4
2018-06-28T08:15:25.472Z,21.4
2018-06-28T08:16:25.434Z,21.4
2018-06-28T08:17:26.457Z,21.3
2018-06-28T08:18:25.445Z,21.3
2018-06-28T08:20:27.435Z,21.1
2018-06-28T08:21:25.510Z,21.1
2018-06-28T08:22:25.548Z,21.1
2018-06-28T08:23:25.565Z,21.1
2018-06-28T08:24:25.512Z,21.1
2018-06-28T08:25:26.185Z,21.1
2018-06-28T08:26:25.513Z,21.1
2018-06-28T08:27:25.514Z,21.3
2018-06-28T08:28:25.582Z,21.3
2018-06-28T08:29:25.479Z,21.3
2018-06-28T08:30:25.489Z,21.3
2018-06-28T08:32:25.557Z,21.4
2018-06-28T08:33:25.534Z,21.4
2018-06-28T08:34:25.634Z,21.4
2018-06-28T08:35:25.522Z,21.4
2018-06-28T08:36:25.507Z,21.4
2018-06-28T08:37:26.281Z,21.9
2018-06-28T08:38:25.721Z,21.9
2018-06-28T08:39:25.616Z,21.9
2018-06-28T08:40:27.558Z,21.9
2018-06-28T08:41:25.481Z,21.9
2018-06-28T08:42:25.585Z,22.1
2018-06-28T08:43:25.546Z,22.1
2018-06-28T08:44:25.477Z,22.1
2018-06-28T08:45:25.509Z,21.8
2018-06-28T08:46:25.452Z,21.8
2018-06-28T08:47:25.547Z,21.8
2018-06-28T08:48:25.579Z,21.8
2018-06-28T08:49:25.601Z,21.8
2018-06-28T08:50:35.774Z,21.8
2018-06-28T08:51:26.237Z,21.8
2018-06-28T08:52:26.260Z,21.8
2018-06-28T08:53:25.648Z,21.2
2018-06-28T08:54:25.558Z,21.2
2018-06-28T08:55:25.575Z,21.3
2018-06-28T08:56:26.231Z,21.3
2018-06-28T08:57:25.488Z,21.3
2018-06-28T08:58:26.237Z,21.7
2018-06-28T08:59:26.681Z,21.7
2018-06-28T09:02:30.507Z,21.8
2018-06-28T09:03:30.404Z,21.6
2018-06-28T09:05:30.423Z,21.6
2018-06-28T09:06:30.397Z,21.6
2018-06-28T09:07:30.402Z,21.6
2018-06-28T09:08:31.128Z,21.7
2018-06-28T09:09:30.508Z,21.7
2018-06-28T09:10:30.466Z,21.4
2018-06-28T09:11:31.045Z,21.4
2018-06-28T09:13:43.572Z,21.4
2018-06-28T09:14:42.761Z,21.4
2018-06-28T09:15:43.484Z,21.5
2018-06-28T09:16:42.771Z,21.5
2018-06-28T09:17:43.440Z,21.5
2018-06-28T09:18:42.773Z,21.4
2018-06-28T09:19:42.774Z,21.4
2018-06-28T09:20:42.717Z,21.4
2018-06-28T09:21:42.889Z,21.4
2018-06-28T09:22:43.831Z,21.4
2018-06-28T09:23:42.774Z,21.2
2018-06-28T09:24:42.762Z,21.2
2018-06-28T09:25:42.787Z,21.0
2018-06-28T09:26:43.404Z,21.0
2018-06-28T09:27:42.790Z,21.0
2018-06-28T09:28:43.373Z,21.2
2018-06-28T09:29:42.812Z,21.2
2018-06-28T09:30:42.805Z,21.2
2018-06-28T09:31:43.503Z,21.2
2018-06-28T09:32:42.780Z,21.2
2018-06-28T09:33:42.789Z,20.9
2018-06-28T09:35:42.797Z,20.8
2018-06-28T09:36:42.767Z,20.8
2018-06-28T09:37:42.755Z,20.8
2018-06-28T09:38:42.807Z,20.7
2018-06-28T09:39:42.819Z,20.7
2018-06-28T09:40:43.803Z,20.7
2018-06-28T09:42:11.355Z,21.0
2018-06-28T09:42:43.451Z,21.0
2018-06-28T09:43:42.930Z,21.2
2018-06-28T09:44:42.816Z,21.2
2018-06-28T09:45:42.806Z,21.2
2018-06-28T09:46:42.901Z,21.4
2018-06-28T09:48:42.832Z,21.5
2018-06-28T09:49:42.850Z,21.5
2018-06-28T09:50:42.798Z,21.5
2018-06-28T09:51:43.527Z,21.6
2018-06-28T09:52:43.281Z,21.6
2018-06-28T09:54:42.897Z,21.6
2018-06-28T09:55:43.419Z,21.6
2018-06-28T09:57:42.792Z,21.6
2018-06-28T09:58:42.878Z,21.6
2018-06-28T09:59:42.824Z,21.6
2018-06-28T10:00:42.856Z,21.6
2018-06-28T10:01:42.891Z,21.6
2018-06-28T10:03:11.318Z,21.6
2018-06-28T10:03:42.840Z,21.5
2018-06-28T10:04:42.963Z,21.5
2018-06-28T10:05:42.892Z,21.5
2018-06-28T10:06:43.491Z,21.6
2018-06-28T10:07:42.876Z,21.6
2018-06-28T10:08:42.793Z,21.6
2018-06-28T10:09:42.805Z,21.6
2018-06-28T10:10:42.834Z,21.6
2018-06-28T10:11:42.873Z,21.6
2018-06-28T10:12:43.663Z,21.6
2018-06-28T10:13:42.843Z,21.6
2018-06-28T10:14:42.972Z,21.6
2018-06-28T10:15:42.947Z,21.6
2018-06-28T10:16:42.884Z,21.6
2018-06-28T10:17:42.850Z,21.6
2018-06-28T10:18:42.861Z,21.6
2018-06-28T10:19:42.941Z,21.4
2018-06-28T10:20:42.931Z,21.4
2018-06-28T10:21:42.982Z,21.6
2018-06-28T10:22:45.134Z,21.6
2018-06-28T10:23:42.885Z,21.6
2018-06-28T10:24:42.919Z,21.9
2018-06-28T10:25:42.898Z,21.9
2018-06-28T10:26:43.481Z,22.1
2018-06-28T10:27:42.893Z,22.1
2018-06-28T10:28:42.909Z,22.1
2018-06-28T10:29:43.704Z,22.2
2018-06-28T10:30:43.542Z,22.2
2018-06-28T10:31:42.988Z,22.2
2018-06-28T10:32:43.557Z,22.2
2018-06-28T10:33:42.908Z,22.2
2018-06-28T10:34:42.972Z,22.1
2018-06-28T10:35:42.963Z,22.1
2018-06-28T10:36:42.920Z,22.0
2018-06-28T10:37:42.902Z,22.0
2018-06-28T10:38:42.860Z,22.0
2018-06-28T10:40:42.896Z,21.8
2018-06-28T10:41:42.951Z,21.8
2018-06-28T10:42:43.602Z,21.8
2018-06-28T10:43:42.909Z,21.8
2018-06-28T10:44:43.433Z,22.2
2018-06-28T10:45:42.971Z,22.2
2018-06-28T10:46:43.022Z,22.2
2018-06-28T10:47:42.985Z,22.2
2018-06-28T10:48:42.971Z,22.2
2018-06-28T10:49:43.008Z,22.5
2018-06-28T10:50:42.995Z,22.5
2018-06-28T10:51:43.531Z,22.5
2018-06-28T10:52:53.080Z,22.4
2018-06-28T10:53:42.958Z,22.4
2018-06-28T10:55:42.915Z,22.0
2018-06-28T10:56:42.974Z,22.0
2018-06-28T10:57:43.111Z,21.9
2018-06-28T10:58:43.958Z,21.9
2018-06-28T10:59:42.959Z,21.6
2018-06-28T11:00:42.996Z,21.6
2018-06-28T11:01:43.036Z,21.6
2018-06-28T11:02:44.226Z,21.6
2018-06-28T11:03:43.572Z,21.6
2018-06-28T11:04:42.945Z,21.3
2018-06-28T11:05:42.986Z,21.3
2018-06-28T11:06:42.933Z,21.3
2018-06-28T11:07:43.010Z,21.2
2018-06-28T11:08:42.977Z,21.2
2018-06-28T11:09:43.062Z,21.2
2018-06-28T11:10:43.057Z,21.1
2018-06-28T11:11:43.027Z,21.1
2018-06-28T11:12:43.046Z,21.2
2018-06-28T11:13:42.940Z,21.2
2018-06-28T11:14:43.054Z,21.2
2018-06-28T11:15:43.143Z,21.1
2018-06-28T11:16:43.061Z,21.1
2018-06-28T11:17:43.668Z,21.2
2018-06-28T11:18:43.794Z,21.2
2018-06-28T11:19:43.099Z,21.2
2018-06-28T11:20:44.035Z,21.0
2018-06-28T11:21:43.016Z,21.0
2018-06-28T11:22:44.285Z,21.0
2018-06-28T11:23:43.054Z,21.0
2018-06-28T11:24:43.131Z,21.0
2018-06-28T11:25:44.392Z,21.0
2018-06-28T11:26:43.086Z,21.0
2018-06-28T11:27:43.096Z,20.9
2018-06-28T11:28:43.111Z,20.9
2018-06-28T11:29:43.063Z,20.9
2018-06-28T11:30:43.102Z,20.8
2018-06-28T11:31:43.212Z,20.8
2018-06-28T11:32:43.175Z,20.7
2018-06-28T11:33:43.088Z,20.7
2018-06-28T11:34:43.129Z,20.7
2018-06-28T11:35:43.151Z,20.5
2018-06-28T11:36:43.116Z,20.5
2018-06-28T11:37:43.118Z,20.4
2018-06-28T11:38:45.271Z,20.4
2018-06-28T11:39:43.206Z,20.4
2018-06-28T11:40:43.256Z,20.4
2018-06-28T11:41:43.228Z,20.4
2018-06-28T11:42:43.881Z,20.4
2018-06-28T11:43:43.170Z,20.3
2018-06-28T11:44:43.179Z,20.3
2018-06-28T11:45:43.113Z,20.4
2018-06-28T11:46:43.248Z,20.4
2018-06-28T11:47:43.800Z,20.4
2018-06-28T11:48:43.170Z,20.4
2018-06-28T11:49:43.232Z,20.4
2018-06-28T11:50:43.210Z,20.4
2018-06-28T11:51:43.222Z,20.4
2018-06-28T11:52:43.820Z,20.4
2018-06-28T11:53:43.128Z,20.6
2018-06-28T11:54:43.807Z,20.6
2018-06-28T11:55:43.237Z,20.6
2018-06-28T11:56:44.273Z,20.6
2018-06-28T11:57:43.135Z,20.6
2018-06-28T11:58:43.167Z,20.6
2018-06-28T11:59:43.258Z,20.6
2018-06-28T12:00:43.218Z,20.7
2018-06-28T12:01:43.314Z,20.7
2018-06-28T12:02:43.120Z,20.7
2018-06-28T12:03:43.230Z,20.7
2018-06-28T12:04:43.134Z,20.7
2018-06-28T12:05:43.685Z,20.7
2018-06-28T12:07:43.118Z,20.7
2018-06-28T12:08:43.137Z,20.5
2018-06-28T12:09:43.163Z,20.5
2018-06-28T12:10:43.231Z,20.5
2018-06-28T12:11:43.239Z,20.6
2018-06-28T12:12:43.162Z,20.6
2018-06-28T12:13:43.213Z,20.5
2018-06-28T12:14:43.141Z,20.5
2018-06-28T12:15:43.189Z,20.5
2018-06-28T12:20:01.605Z,20.6
2018-06-28T12:20:09.640Z,20.6
2018-06-28T12:21:09.698Z,20.8
2018-06-28T12:22:09.659Z,20.8
2018-06-28T12:23:09.669Z,20.8
2018-06-28T12:24:10.243Z,21.2
2018-06-28T12:25:09.695Z,21.2
2018-06-28T12:26:10.198Z,21.7
2018-06-28T12:27:09.694Z,21.7
2018-06-28T12:28:09.737Z,21.7
2018-06-28T12:29:09.680Z,21.9
2018-06-28T12:30:09.655Z,21.9
2018-06-28T12:31:09.798Z,21.8
2018-06-28T12:33:10.464Z,21.8
2018-06-28T12:34:09.705Z,21.7
2018-06-28T12:35:09.653Z,21.7
2018-06-28T12:36:09.755Z,21.7
2018-06-28T12:37:10.403Z,21.6
2018-06-28T12:38:09.627Z,21.6
2018-06-28T12:39:09.760Z,21.5
2018-06-28T12:40:09.726Z,21.5
2018-06-28T12:41:09.666Z,21.5
2018-06-28T12:42:09.809Z,21.5
2018-06-28T12:43:10.350Z,21.5
2018-06-28T12:44:09.713Z,21.5
2018-06-28T12:45:09.841Z,21.5
2018-06-28T12:46:09.877Z,21.5
2018-06-28T12:47:10.769Z,21.5
2018-06-28T12:48:09.713Z,21.5
2018-06-28T12:49:09.735Z,21.6
2018-06-28T12:50:09.753Z,21.6
2018-06-28T12:51:09.768Z,21.6
2018-06-28T12:52:10.265Z,21.7
2018-06-28T12:53:09.691Z,21.7
2018-06-28T12:54:09.711Z,22.0
2018-06-28T12:55:09.732Z,22.0
2018-06-28T12:56:10.409Z,22.0
2018-06-28T12:57:10.478Z,22.4
2018-06-28T12:58:09.743Z,22.4
2018-06-28T12:59:10.513Z,22.5
2018-06-28T13:00:09.784Z,22.5
2018-06-28T13:02:09.713Z,22.7
2018-06-28T13:03:09.772Z,22.7
2018-06-28T13:04:09.717Z,22.6
2018-06-28T13:05:09.699Z,22.6
2018-06-28T13:06:09.820Z,22.6
2018-06-28T13:07:09.795Z,22.5
2018-06-28T13:08:09.724Z,22.5
2018-06-28T13:09:10.672Z,22.5
2018-06-28T13:10:10.302Z,22.2
2018-06-28T13:11:10.276Z,22.2
2018-06-28T13:12:09.771Z,22.4
2018-06-28T13:13:10.463Z,22.4
2018-06-28T13:14:09.813Z,22.4
2018-06-28T13:15:09.805Z,22.7
2018-06-28T13:16:09.729Z,22.7
2018-06-28T13:18:09.793Z,23.0
2018-06-28T13:19:09.751Z,23.0
2018-06-28T13:20:09.869Z,23.2
2018-06-28T13:21:10.470Z,23.2
2018-06-28T13:22:10.287Z,23.3
2018-06-28T13:24:09.782Z,23.3
2018-06-28T13:25:09.856Z,23.3
2018-06-28T13:26:09.855Z,23.3
2018-06-28T13:27:09.797Z,22.8
2018-06-28T13:28:09.781Z,22.8
2018-06-28T13:29:10.864Z,22.8
2018-06-28T13:30:09.773Z,22.7
2018-06-28T13:31:09.730Z,22.7
2018-06-28T13:32:09.770Z,22.5
2018-06-28T13:33:09.924Z,22.5
2018-06-28T13:34:20.346Z,22.5
2018-06-28T13:35:09.778Z,22.3
2018-06-28T13:36:09.785Z,22.3
2018-06-28T13:37:09.787Z,22.3
2018-06-28T13:38:09.835Z,22.1
2018-06-28T13:39:10.530Z,22.1
2018-06-28T13:40:09.883Z,22.0
2018-06-28T13:42:10.006Z,22.0
2018-06-28T13:43:10.343Z,21.7
2018-06-28T13:45:09.864Z,21.5
2018-06-28T13:46:09.958Z,21.5
2018-06-28T13:47:11.000Z,21.5
2018-06-28T13:48:09.868Z,21.5
2018-06-28T13:49:09.892Z,21.5
2018-06-28T13:50:09.864Z,21.5
2018-06-28T13:51:09.918Z,21.5
2018-06-28T13:53:09.904Z,21.4
2018-06-28T13:55:10.885Z,21.3
2018-06-28T13:56:09.802Z,21.3
2018-06-28T13:57:09.837Z,21.3
2018-06-28T13:58:09.909Z,21.2
2018-06-28T13:59:09.833Z,21.2
2018-06-28T14:00:09.848Z,21.1
2018-06-28T14:01:09.917Z,21.1
2018-06-28T14:02:09.839Z,21.1
2018-06-28T14:03:09.901Z,20.8
2018-06-28T14:04:10.360Z,20.8
2018-06-28T14:05:11.470Z,20.8
2018-06-28T14:06:09.925Z,20.8
2018-06-28T14:07:09.953Z,20.8
2018-06-28T14:08:09.854Z,20.5
2018-06-28T14:09:10.362Z,20.5
2018-06-28T14:10:09.977Z,20.5
2018-06-28T14:11:10.600Z,20.4
2018-06-28T14:12:09.898Z,20.4
2018-06-28T14:13:09.944Z,20.4
2018-06-28T14:14:09.838Z,20.4
2018-06-28T14:15:10.590Z,20.4
2018-06-28T14:16:09.881Z,20.3
2018-06-28T14:17:09.900Z,20.3
2018-06-28T14:18:09.876Z,20.3
2018-06-28T14:19:09.886Z,20.3
2018-06-28T14:20:09.881Z,20.3
2018-06-28T14:21:09.924Z,20.3